Time;durP1;ratioP1;P1;durP2;ratioP2;P2;SDS_P1;SDS_P2;PMS_P1;PMS_P2;Temp;Humidity;BMP_temperature;BMP_pressure;BME280_temperature;BME280_humidity;BME280_pressure;Samples;Min_cycle;Max_cycle;Signal;HPM_P1;HPM_P2
2024/03/31 00:00:31;;;;;;;;;;;11.00;99.90;;;11.54;66.79;98795.91;5062861;28;19931;-82
2024/03/31 00:02:58;;;;;;;;;;;11.00;99.90;;;11.49;67.03;98793.19;5081134;28;19985;-82
2024/03/31 00:09:34;;;;;;;;;;;10.90;99.90;;;11.37;66.94;98783.75;4935917;28;20013;-82
2024/03/31 00:12:05;;;;;;;;;;;10.90;99.90;;;11.32;67.00;98774.69;4967260;28;20393;-82
2024/03/31 00:18:27;;;;;;;;;;;10.80;99.90;;;11.27;67.17;98776.50;5000117;28;20053;-82
2024/03/31 00:20:54;;;;;;;;;;;10.80;99.90;;;11.27;67.00;98768.50;5000782;28;19926;-82
2024/03/31 00:23:21;;;;;;;;;;;10.80;99.90;;;11.27;66.73;98753.31;4984780;28;19953;-82
2024/03/31 00:25:55;;;;;;;;;;;10.70;99.90;;;11.25;66.76;98751.94;4984390;28;20368;-82
2024/03/31 00:28:22;;;;;;;;;;;10.70;99.90;;;11.24;67.13;98750.34;4983947;28;19926;-82
2024/03/31 00:30:55;;;;;;;;;;;10.70;99.90;;;11.21;67.06;98759.66;4984109;28;19926;-82
2024/03/31 00:33:23;;;;;;;;;;;10.70;99.90;;;11.21;66.90;98765.00;4984446;28;20386;-82
2024/03/31 00:35:55;;;;;;;;;;;10.70;99.90;;;11.23;67.21;98775.44;4964184;28;19962;-82
2024/03/31 00:38:22;;;;;;;;;;;10.70;99.90;;;11.24;66.86;98777.03;4948633;28;19997;-82
2024/03/31 00:40:48;;;;;;;;;;;10.70;99.90;;;11.19;67.01;98771.66;5030981;28;19932;-82
2024/03/31 00:43:16;;;;;;;;;;;10.70;99.90;;;11.20;67.06;98773.25;5040109;28;20404;-82
2024/03/31 00:45:43;;;;;;;;;;;10.60;99.90;;;11.15;66.98;98768.69;5039925;28;19992;-82
2024/03/31 00:48:10;;;;;;;;;;;10.60;99.90;;;11.13;67.21;98759.34;5041159;28;19972;-82
2024/03/31 00:50:36;;;;;;;;;;;10.60;99.90;;;11.09;67.14;98762.53;5039896;28;19972;-82
2024/03/31 00:53:05;;;;;;;;;;;10.60;99.90;;;11.04;67.08;98761.69;5039727;28;19932;-82
2024/03/31 00:55:32;;;;;;;;;;;10.60;99.90;;;10.97;66.98;98751.22;5045323;28;19983;-82
2024/03/31 00:57:59;;;;;;;;;;;10.50;99.90;;;10.96;67.20;98749.63;5080276;28;19924;-82
2024/03/31 01:00:26;;;;;;;;;;;10.50;99.90;;;10.97;67.13;98761.09;5064064;28;19924;-82
2024/03/31 01:02:54;;;;;;;;;;;10.50;99.90;;;10.96;67.16;98765.63;5080930;28;19925;-82
2024/03/31 01:05:21;;;;;;;;;;;10.50;99.90;;;10.96;67.05;98764.81;5063596;28;19963;-82
2024/03/31 01:07:49;;;;;;;;;;;10.40;99.90;;;10.96;67.14;98764.81;5081377;28;19935;-82
2024/03/31 01:10:17;;;;;;;;;;;10.50;99.90;;;10.95;67.11;98752.56;5063398;28;19929;-82
2024/03/31 01:12:45;;;;;;;;;;;10.40;99.90;;;10.94;67.36;98758.94;5081458;28;19982;-82
2024/03/31 01:15:17;;;;;;;;;;;10.40;99.90;;;10.91;67.13;98756.78;5063197;28;19924;-82
2024/03/31 01:17:44;;;;;;;;;;;10.40;99.90;;;10.86;67.23;98756.75;5043582;28;19955;-82
2024/03/31 01:20:12;;;;;;;;;;;10.40;99.90;;;10.80;67.18;98754.03;5059908;28;19948;-82
2024/03/31 01:22:42;;;;;;;;;;;10.30;99.90;;;10.79;67.20;98763.09;5042955;28;19979;-82
2024/03/31 01:25:10;;;;;;;;;;;10.30;99.90;;;10.77;67.48;98759.06;5059118;28;20351;-82
2024/03/31 01:27:37;;;;;;;;;;;10.30;99.90;;;10.77;67.63;98762.53;5059366;28;19925;-82
2024/03/31 01:30:04;;;;;;;;;;;10.30;99.90;;;10.76;67.26;98770.81;5059314;28;19924;-82
2024/03/31 01:32:31;;;;;;;;;;;10.30;99.90;;;10.76;67.28;98763.59;5060338;28;20054;-82
2024/03/31 01:34:57;;;;;;;;;;;10.20;99.90;;;10.77;67.45;98765.22;5059405;28;19924;-81
2024/03/31 01:37:24;;;;;;;;;;;10.20;99.90;;;10.77;67.45;98769.75;5077191;28;20439;-82
2024/03/31 01:39:50;;;;;;;;;;;10.20;99.90;;;10.76;67.32;98768.13;5081518;28;19924;-82
2024/03/31 01:42:19;;;;;;;;;;;10.20;99.90;;;10.75;67.39;98767.34;5078846;28;19951;-82
2024/03/31 01:44:47;;;;;;;;;;;10.20;99.90;;;10.75;67.42;98755.88;5078206;28;19925;-82
2024/03/31 01:47:14;;;;;;;;;;;10.20;99.90;;;10.71;67.55;98758.22;5076534;28;19947;-82
2024/03/31 01:49:40;;;;;;;;;;;10.20;99.90;;;10.68;67.42;98766.72;5050647;28;19925;-82
2024/03/31 01:52:07;;;;;;;;;;;10.20;99.90;;;10.68;67.63;98765.94;5058720;28;19925;-82
2024/03/31 01:54:35;;;;;;;;;;;10.20;99.90;;;10.68;67.67;98764.06;5058426;28;20023;-82
2024/03/31 01:57:04;;;;;;;;;;;10.20;99.90;;;10.70;67.93;98758.50;5058403;28;20015;-82
2024/03/31 01:59:32;;;;;;;;;;;10.20;99.90;;;10.67;67.65;98759.78;5057848;28;19925;-82
2024/03/31 02:01:59;;;;;;;;;;;10.10;99.90;;;10.68;68.03;98772.06;5058143;28;19929;-82
2024/03/31 02:04:26;;;;;;;;;;;10.20;99.90;;;10.68;67.76;98776.59;5058131;28;19924;-82
2024/03/31 02:06:53;;;;;;;;;;;10.20;99.90;;;10.68;67.82;98780.06;5049185;28;20399;-82
2024/03/31 02:09:20;;;;;;;;;;;10.20;99.90;;;10.67;67.93;98782.97;5077915;28;19924;-82
2024/03/31 02:11:47;;;;;;;;;;;10.10;99.90;;;10.67;67.88;98781.13;5078135;28;19931;-82
2024/03/31 02:14:14;;;;;;;;;;;10.10;99.90;;;10.66;68.03;98786.72;5075944;28;19924;-82
2024/03/31 02:16:44;;;;;;;;;;;10.10;99.90;;;10.62;68.08;98783.75;5079529;28;19924;-82
2024/03/31 02:19:10;;;;;;;;;;;10.10;99.90;;;10.60;68.18;98779.72;5077328;28;19925;-82
2024/03/31 02:21:37;;;;;;;;;;;10.10;99.90;;;10.60;68.17;98772.53;5078520;28;19932;-82
2024/03/31 02:24:04;;;;;;;;;;;10.10;99.90;;;10.60;68.33;98763.75;5079432;28;19925;-82
2024/03/31 02:26:31;;;;;;;;;;;10.10;99.90;;;10.58;68.36;98774.63;5061236;28;19931;-82
2024/03/31 02:28:58;;;;;;;;;;;10.10;99.90;;;10.56;68.43;98766.91;5077854;28;19935;-82
2024/03/31 02:31:25;;;;;;;;;;;10.10;99.90;;;10.56;68.53;98764.25;5077487;28;19925;-82
2024/03/31 02:33:52;;;;;;;;;;;10.10;99.90;;;10.56;68.55;98760.78;5076725;28;20398;-82
2024/03/31 02:36:20;;;;;;;;;;;10.00;99.90;;;10.56;68.46;98764.25;5077964;28;20023;-82
2024/03/31 02:38:46;;;;;;;;;;;10.10;99.90;;;10.58;68.65;98770.09;5060374;28;20303;-82
2024/03/31 02:41:22;;;;;;;;;;;10.10;99.90;;;10.58;68.47;98766.63;5061264;28;19982;-82
2024/03/31 02:43:48;;;;;;;;;;;10.10;99.90;;;10.58;68.45;98767.44;5078808;28;19924;-82
2024/03/31 02:46:16;;;;;;;;;;;10.10;99.90;;;10.58;68.53;98780.78;5077854;28;19928;-82
2024/03/31 02:48:42;;;;;;;;;;;10.10;99.90;;;10.58;68.68;98777.31;5074589;28;19931;-82
2024/03/31 02:51:13;;;;;;;;;;;10.10;99.90;;;10.59;68.57;98768.28;5041101;28;20408;-82
2024/03/31 02:53:39;;;;;;;;;;;10.10;99.90;;;10.58;68.78;98771.97;5057961;28;19986;-82
2024/03/31 02:56:09;;;;;;;;;;;10.10;99.90;;;10.55;68.78;98773.28;5058031;28;19925;-82
2024/03/31 02:58:35;;;;;;;;;;;10.10;99.90;;;10.53;68.77;98770.06;5041419;28;19960;-82
2024/03/31 03:01:04;;;;;;;;;;;10.00;99.90;;;10.53;68.96;98763.94;5058921;28;20464;-82
2024/03/31 03:03:30;;;;;;;;;;;10.10;99.90;;;10.49;68.92;98770.81;5057823;28;19999;-82
2024/03/31 03:05:58;;;;;;;;;;;10.00;99.90;;;10.47;68.92;98772.94;5077179;28;19924;-82
2024/03/31 03:08:25;;;;;;;;;;;10.00;99.90;;;10.48;68.99;98770.00;5077349;28;19925;-82
2024/03/31 03:10:53;;;;;;;;;;;10.00;99.90;;;10.48;68.92;98775.34;5077867;28;19924;-82
2024/03/31 03:13:19;;;;;;;;;;;10.10;99.90;;;10.51;69.13;98779.38;5077105;28;19929;-82
2024/03/31 03:15:47;;;;;;;;;;;10.10;99.90;;;10.50;69.27;98769.78;5076682;28;19925;-82
2024/03/31 03:18:14;;;;;;;;;;;10.00;99.90;;;10.52;69.28;98773.78;5077686;28;20470;-82
2024/03/31 03:20:43;;;;;;;;;;;10.10;99.90;;;10.55;69.45;98764.50;5078002;28;19959;-82
2024/03/31 03:23:09;;;;;;;;;;;10.10;99.90;;;10.56;69.55;98777.56;5075905;28;19932;-82
2024/03/31 03:25:38;;;;;;;;;;;10.10;99.90;;;10.57;69.36;98773.84;5057701;28;19925;-82
2024/03/31 03:28:05;;;;;;;;;;;10.10;99.90;;;10.55;69.43;98777.81;5057431;28;20308;-82
2024/03/31 03:30:37;;;;;;;;;;;10.10;99.90;;;10.57;69.32;98776.50;5057415;28;19932;-82
2024/03/31 03:33:04;;;;;;;;;;;10.10;99.90;;;10.57;69.39;98779.16;5059936;28;19931;-82
2024/03/31 03:35:32;;;;;;;;;;;10.10;99.90;;;10.59;69.55;98778.94;5044711;28;19968;-82
2024/03/31 03:38:05;;;;;;;;;;;10.10;99.90;;;10.61;69.51;98771.47;5061888;28;19960;-82
2024/03/31 03:40:32;;;;;;;;;;;10.10;99.90;;;10.59;69.66;98770.94;5078700;28;19924;-82
2024/03/31 03:43:02;;;;;;;;;;;10.20;99.90;;;10.58;69.81;98769.31;5064084;28;19928;-82
2024/03/31 03:45:31;;;;;;;;;;;10.10;99.90;;;10.58;69.79;98766.63;5063797;28;20484;-82
2024/03/31 03:47:57;;;;;;;;;;;10.20;99.90;;;10.58;69.88;98761.31;5082320;28;19931;-82
2024/03/31 03:50:25;;;;;;;;;;;10.20;99.90;;;10.60;69.86;98763.75;5080257;28;19925;-82
2024/03/31 03:52:53;;;;;;;;;;;10.20;99.90;;;10.59;69.81;98762.94;5080825;28;19966;-82
2024/03/31 03:55:21;;;;;;;;;;;10.20;99.90;;;10.57;70.19;98760.50;5064320;28;19928;-82
2024/03/31 03:57:47;;;;;;;;;;;10.20;99.90;;;10.59;70.29;98757.59;5060451;28;19928;-82
2024/03/31 04:00:16;;;;;;;;;;;10.20;99.90;;;10.59;70.18;98762.94;5060187;28;19924;-82
2024/03/31 04:02:44;;;;;;;;;;;10.20;99.90;;;10.60;70.26;98756.53;5062140;28;19925;-82
2024/03/31 04:05:12;;;;;;;;;;;10.20;99.90;;;10.58;70.52;98751.44;5060891;28;19988;-82
2024/03/31 04:07:38;;;;;;;;;;;10.20;99.90;;;10.56;70.62;98756.25;5062581;28;19931;-82
2024/03/31 04:10:05;;;;;;;;;;;10.20;99.90;;;10.59;70.91;98752.28;5061194;28;20018;-82
2024/03/31 04:12:32;;;;;;;;;;;10.20;99.90;;;10.58;70.85;98748.78;5061708;28;20276;-82
2024/03/31 04:15:01;;;;;;;;;;;10.20;99.90;;;10.60;70.96;98753.88;5059779;28;19925;-82
2024/03/31 04:17:29;;;;;;;;;;;10.20;99.90;;;10.60;70.89;98755.75;5060621;28;19925;-82
2024/03/31 04:19:56;;;;;;;;;;;10.20;99.90;;;10.58;70.90;98755.97;5071712;28;19925;-82
2024/03/31 04:22:22;;;;;;;;;;;10.20;99.90;;;10.60;71.10;98745.09;5082030;28;19939;-82
2024/03/31 04:24:50;;;;;;;;;;;10.30;99.90;;;10.59;71.28;98733.63;5063946;28;19925;-82
2024/03/31 04:27:16;;;;;;;;;;;10.20;99.90;;;10.60;71.35;98745.09;5081128;28;19924;-82
2024/03/31 04:29:45;;;;;;;;;;;10.20;99.90;;;10.62;71.50;98743.75;5063980;28;19931;-82
2024/03/31 04:32:12;;;;;;;;;;;10.20;99.90;;;10.63;71.49;98737.34;5064116;28;20399;-82
2024/03/31 04:34:40;;;;;;;;;;;10.20;99.90;;;10.62;71.75;98740.28;5080148;28;19924;-82
2024/03/31 04:37:07;;;;;;;;;;;10.20;99.90;;;10.61;71.81;98733.34;5063945;28;19970;-82
2024/03/31 04:39:35;;;;;;;;;;;10.20;99.90;;;10.59;71.71;98730.94;5079768;28;19991;-82
2024/03/31 04:42:01;;;;;;;;;;;10.20;99.90;;;10.56;71.99;98724.25;5074017;28;19929;-82
2024/03/31 04:44:29;;;;;;;;;;;10.20;99.90;;;10.59;71.93;98725.63;5042292;28;19925;-82
2024/03/31 04:46:55;;;;;;;;;;;10.20;99.90;;;10.60;72.04;98710.44;5059826;28;19925;-83
2024/03/31 04:49:23;;;;;;;;;;;10.20;99.90;;;10.60;72.01;98716.56;5043365;28;19933;-83
2024/03/31 04:51:52;;;;;;;;;;;10.20;99.90;;;10.61;71.99;98706.69;5060085;28;19963;-82
2024/03/31 04:54:23;;;;;;;;;;;10.20;99.90;;;10.59;72.14;98704.28;5062843;28;19924;-82
2024/03/31 04:56:51;;;;;;;;;;;10.20;99.90;;;10.63;72.21;98709.91;5061857;28;19929;-82
2024/03/31 04:59:21;;;;;;;;;;;10.20;99.90;;;10.64;72.17;98707.00;5079081;28;19929;-82
2024/03/31 05:01:47;;;;;;;;;;;10.30;99.90;;;10.64;72.49;98706.16;5078643;28;19925;-82
2024/03/31 05:04:14;;;;;;;;;;;10.20;99.90;;;10.62;72.40;98703.78;5061725;28;20011;-82
2024/03/31 05:06:41;;;;;;;;;;;10.20;99.90;;;10.64;72.48;98700.84;5078613;28;19924;-82
2024/03/31 05:09:12;;;;;;;;;;;10.20;99.90;;;10.64;72.64;98699.00;5045736;28;19924;-83
2024/03/31 05:11:38;;;;;;;;;;;10.20;99.90;;;10.64;72.57;98691.00;5081206;28;19938;-83
2024/03/31 05:14:05;;;;;;;;;;;10.20;99.90;;;10.66;73.02;98699.53;5079767;28;19960;-82
2024/03/31 05:16:34;;;;;;;;;;;10.30;99.90;;;10.70;72.97;98699.84;5078497;28;19924;-82
2024/03/31 05:19:03;;;;;;;;;;;10.30;99.90;;;10.68;72.94;98697.41;5028960;28;19924;-82
2024/03/31 05:21:30;;;;;;;;;;;10.30;99.90;;;10.68;72.94;98705.41;5061861;28;19924;-83
2024/03/31 05:23:58;;;;;;;;;;;10.30;99.90;;;10.71;73.14;98704.91;5045456;28;19924;-82
2024/03/31 05:26:31;;;;;;;;;;;10.30;99.90;;;10.74;73.00;98719.59;5059036;28;20317;-83
2024/03/31 05:28:58;;;;;;;;;;;10.30;99.90;;;10.72;73.21;98751.84;5063157;28;19932;-82
2024/03/31 05:31:24;;;;;;;;;;;10.30;99.90;;;10.67;73.36;98753.66;5058731;28;19931;-82
2024/03/31 05:34:10;;;;;;;;;;;10.30;99.90;;;10.69;73.54;98740.91;5073978;28;19979;-82
2024/03/31 05:36:40;;;;;;;;;;;10.30;99.90;;;10.72;73.61;98725.16;5077947;28;20400;-82
2024/03/31 05:39:07;;;;;;;;;;;10.40;99.90;;;10.74;74.14;98711.59;5061925;28;19924;-82
2024/03/31 05:41:35;;;;;;;;;;;10.40;99.90;;;10.75;74.06;98710.53;5078693;28;19932;-82
2024/03/31 05:44:02;;;;;;;;;;;10.40;99.90;;;10.75;74.29;98705.22;5070270;28;19925;-82
2024/03/31 05:46:30;;;;;;;;;;;10.40;99.90;;;10.77;74.41;98708.41;5057959;28;20347;-83
2024/03/31 05:48:58;;;;;;;;;;;10.40;99.90;;;10.78;74.33;98710.00;5041310;28;20285;-82
2024/03/31 05:51:30;;;;;;;;;;;10.40;99.90;;;10.80;74.39;98706.03;5058235;28;19928;-82
2024/03/31 05:53:58;;;;;;;;;;;10.50;99.90;;;10.82;74.35;98709.25;5058233;28;20396;-82
2024/03/31 05:56:24;;;;;;;;;;;10.50;99.90;;;10.80;74.42;98703.38;5042145;28;20319;-82
2024/03/31 05:58:53;;;;;;;;;;;10.40;99.90;;;10.78;74.84;98702.00;5073893;28;19974;-83
2024/03/31 06:01:20;;;;;;;;;;;10.40;99.90;;;10.78;74.92;98692.19;5079989;28;20417;-83
2024/03/31 06:03:50;;;;;;;;;;;10.40;99.90;;;10.78;75.15;98697.50;5080060;28;20009;-82
2024/03/31 06:06:16;;;;;;;;;;;10.40;99.90;;;10.79;75.00;98691.09;5077205;28;19925;-82
2024/03/31 06:08:43;;;;;;;;;;;10.40;99.90;;;10.80;74.96;98683.91;5077838;28;19925;-82
2024/03/31 06:11:09;;;;;;;;;;;10.40;99.90;;;10.77;75.42;98679.88;5078003;28;19932;-83
2024/03/31 06:13:37;;;;;;;;;;;10.40;99.90;;;10.77;75.32;98673.75;5077479;28;19960;-82
2024/03/31 06:16:05;;;;;;;;;;;10.40;99.90;;;10.78;75.49;98681.50;5059917;28;20374;-82
2024/03/31 06:18:32;;;;;;;;;;;10.40;99.90;;;10.82;75.35;98679.91;5075321;28;19933;-83
2024/03/31 06:21:05;;;;;;;;;;;10.50;99.90;;;10.86;75.50;98674.88;5077202;28;19932;-83
2024/03/31 06:23:35;;;;;;;;;;;10.50;99.90;;;10.90;75.55;98681.31;5075344;28;19978;-83
2024/03/31 06:26:03;;;;;;;;;;;10.50;99.90;;;10.93;75.62;98672.81;5078148;28;19924;-82
2024/03/31 06:28:31;;;;;;;;;;;10.60;99.90;;;10.96;75.61;98682.94;5077955;28;20367;-83
2024/03/31 06:30:58;;;;;;;;;;;10.60;99.90;;;10.98;75.82;98672.00;5076997;28;19939;-83
2024/03/31 06:33:27;;;;;;;;;;;10.60;99.90;;;11.00;75.80;98669.91;5078193;28;19932;-83
2024/03/31 06:35:55;;;;;;;;;;;10.60;99.90;;;11.02;76.30;98662.44;5076225;28;20383;-82
2024/03/31 06:38:23;;;;;;;;;;;10.60;99.90;;;11.03;76.30;98662.19;5076344;28;19925;-82
2024/03/31 06:40:49;;;;;;;;;;;10.70;99.90;;;11.05;76.38;98665.38;5059338;28;20383;-82
2024/03/31 06:43:17;;;;;;;;;;;10.70;99.90;;;11.06;76.57;98664.31;5076572;28;19924;-81
2024/03/31 06:45:48;;;;;;;;;;;10.70;99.90;;;11.07;76.40;98657.13;5059712;28;19924;-82
2024/03/31 06:48:15;;;;;;;;;;;10.70;99.90;;;11.08;76.56;98654.22;5059659;28;20388;-81
2024/03/31 06:50:43;;;;;;;;;;;10.70;99.90;;;11.10;76.71;98661.94;5078265;28;19925;-81
2024/03/31 06:53:10;;;;;;;;;;;10.80;99.90;;;11.13;76.73;98666.78;5075590;28;20007;-81
2024/03/31 06:55:37;;;;;;;;;;;10.80;99.90;;;11.13;76.93;98669.44;5076407;28;20039;-82
2024/03/31 06:58:05;;;;;;;;;;;10.80;99.90;;;11.15;76.99;98667.31;5076160;28;19991;-81
2024/03/31 07:00:31;;;;;;;;;;;10.80;99.90;;;11.18;76.88;98669.47;5076911;28;19924;-81
2024/03/31 07:02:58;;;;;;;;;;;10.90;99.90;;;11.23;76.74;98668.69;5075408;28;19925;-81
2024/03/31 07:05:26;;;;;;;;;;;10.90;99.90;;;11.26;77.14;98668.94;5076902;28;19932;-81
2024/03/31 07:07:55;;;;;;;;;;;11.00;99.90;;;11.29;77.05;98660.44;5079846;28;19925;-81
2024/03/31 07:10:23;;;;;;;;;;;11.00;99.90;;;11.33;76.89;98666.06;5079864;28;20310;-81
2024/03/31 07:12:51;;;;;;;;;;;11.10;99.90;;;11.38;77.30;98665.28;5079835;28;20613;-82
2024/03/31 07:15:17;;;;;;;;;;;11.10;99.90;;;11.41;77.46;98665.53;5079712;28;20019;-81
2024/03/31 07:17:44;;;;;;;;;;;11.20;99.90;;;11.43;77.57;98655.44;5062627;28;19925;-82
2024/03/31 07:20:13;;;;;;;;;;;11.10;99.90;;;11.48;78.13;98663.47;5080584;28;20414;-82
2024/03/31 07:22:41;;;;;;;;;;;11.20;99.90;;;11.53;77.96;98657.34;5079282;28;19928;-82
2024/03/31 07:25:09;;;;;;;;;;;11.30;99.90;;;11.55;78.35;98652.53;5079659;28;19989;-81
2024/03/31 07:27:36;;;;;;;;;;;11.30;99.90;;;11.58;78.48;98652.81;5079973;28;19924;-84
2024/03/31 07:30:03;;;;;;;;;;;11.40;99.90;;;11.60;78.70;98653.34;5064300;28;19925;-82
2024/03/31 07:32:30;;;;;;;;;;;11.40;99.90;;;11.63;78.76;98654.69;5079275;28;19931;-82
2024/03/31 07:34:56;;;;;;;;;;;11.40;99.90;;;11.65;78.53;98660.56;5078989;28;19924;-82
2024/03/31 07:37:23;;;;;;;;;;;11.50;99.90;;;11.67;78.60;98653.09;5078266;28;19924;-81
2024/03/31 07:39:50;;;;;;;;;;;11.50;99.90;;;11.69;78.40;98656.31;5080374;28;20400;-82
2024/03/31 07:42:18;;;;;;;;;;;11.50;99.90;;;11.75;78.42;98657.13;5080823;28;19929;-82
2024/03/31 07:44:44;;;;;;;;;;;11.60;99.90;;;11.80;78.99;98657.13;5078670;28;19924;-82
2024/03/31 07:47:12;;;;;;;;;;;11.60;99.90;;;11.99;79.25;98652.13;5080179;28;19929;-82
2024/03/31 07:49:38;;;;;;;;;;;11.80;99.90;;;12.18;79.88;98647.06;5080229;28;19925;-82
2024/03/31 07:52:05;;;;;;;;;;;12.00;99.90;;;12.29;80.11;98654.03;5078651;28;19924;-82
2024/03/31 07:54:32;;;;;;;;;;;12.20;99.90;;;12.32;79.97;98654.28;5080151;28;19924;-83
2024/03/31 07:56:59;;;;;;;;;;;12.20;99.90;;;12.33;80.42;98650.53;5078542;28;19924;-82
2024/03/31 07:59:26;;;;;;;;;;;12.30;99.90;;;12.33;80.21;98650.53;5079483;28;19924;-82
2024/03/31 08:01:54;;;;;;;;;;;12.30;99.90;;;12.37;80.82;98648.16;5080235;28;19924;-82
2024/03/31 08:04:20;;;;;;;;;;;12.40;99.90;;;12.42;80.45;98644.66;5061371;28;20398;-82
2024/03/31 08:06:49;;;;;;;;;;;12.40;99.90;;;12.48;80.28;98648.94;5042253;28;20315;-85
2024/03/31 08:09:17;;;;;;;;;;;12.40;99.90;;;12.50;80.47;98650.28;5058828;28;19935;-87
2024/03/31 08:11:45;;;;;;;;;;;12.50;99.90;;;12.50;80.03;98652.97;5076211;28;19924;-86
2024/03/31 08:14:11;;;;;;;;;;;12.50;99.90;;;12.52;79.91;98644.66;5074952;28;19925;-88
2024/03/31 08:16:40;;;;;;;;;;;12.50;99.90;;;12.55;80.17;98639.59;5058526;28;20463;-88
2024/03/31 08:19:06;;;;;;;;;;;12.60;99.90;;;12.65;80.76;98638.78;5077885;28;19924;-84
2024/03/31 08:21:34;;;;;;;;;;;12.70;99.90;;;12.76;80.04;98628.84;5081946;28;19924;-83
2024/03/31 08:24:00;;;;;;;;;;;12.80;99.90;;;12.82;79.94;98622.41;5078259;28;19925;-82
2024/03/31 08:26:28;;;;;;;;;;;12.90;99.90;;;12.84;79.44;98622.97;5030768;28;20299;-81
2024/03/31 08:28:54;;;;;;;;;;;12.90;99.90;;;12.83;79.01;98624.00;5058480;28;20023;-82
2024/03/31 08:31:22;;;;;;;;;;;12.90;99.90;;;12.81;78.76;98618.94;5041917;28;19935;-82
2024/03/31 08:33:49;;;;;;;;;;;12.80;99.90;;;12.81;78.68;98621.63;5059563;28;20431;-81
2024/03/31 08:36:16;;;;;;;;;;;12.90;99.90;;;12.84;78.79;98628.31;5060349;28;19929;-82
2024/03/31 08:38:43;;;;;;;;;;;12.90;99.90;;;12.90;79.31;98629.91;5062627;28;19974;-81
2024/03/31 08:41:11;;;;;;;;;;;13.00;99.90;;;13.01;79.69;98641.38;5074694;28;19925;-81
2024/03/31 08:43:39;;;;;;;;;;;13.10;99.90;;;13.13;79.55;98634.66;5079314;28;19995;-81
2024/03/31 08:46:06;;;;;;;;;;;13.20;99.90;;;13.22;79.03;98636.78;5077962;28;19932;-81
2024/03/31 08:48:36;;;;;;;;;;;13.40;99.90;;;13.31;78.45;98629.78;5059171;28;19971;-81
2024/03/31 08:51:06;;;;;;;;;;;13.50;99.90;;;13.37;78.00;98623.31;5059184;28;19971;-81
2024/03/31 08:53:33;;;;;;;;;;;13.50;99.90;;;13.41;77.53;98619.03;5066995;28;20315;-81
2024/03/31 08:56:00;;;;;;;;;;;13.60;99.90;;;13.39;76.16;98619.31;5059546;28;19946;-82
2024/03/31 08:58:27;;;;;;;;;;;13.60;99.90;;;13.42;76.24;98617.13;5077259;28;19974;-86
2024/03/31 09:00:56;;;;;;;;;;;13.60;99.90;;;13.46;75.88;98610.16;5077629;28;20064;-86
2024/03/31 09:03:22;;;;;;;;;;;13.60;99.90;;;13.49;75.82;98618.47;5078676;28;19947;-81
2024/03/31 09:05:50;;;;;;;;;;;13.60;99.90;;;13.55;76.05;98620.03;5078406;28;19946;-81
2024/03/31 09:08:17;;;;;;;;;;;13.70;99.90;;;13.65;76.84;98613.81;5079514;28;19924;-81
2024/03/31 09:10:45;;;;;;;;;;;13.80;99.90;;;13.71;75.51;98615.38;5061931;28;19924;-81
2024/03/31 09:13:14;;;;;;;;;;;13.90;99.90;;;13.75;74.53;98610.28;5078984;28;19932;-81
2024/03/31 09:15:43;;;;;;;;;;;13.90;99.90;;;13.76;73.50;98612.69;5061217;28;19930;-82
2024/03/31 09:18:10;;;;;;;;;;;13.90;99.90;;;13.77;73.69;98602.78;5079044;28;19932;-81
2024/03/31 09:20:37;;;;;;;;;;;13.90;99.90;;;13.84;73.72;98605.94;5079393;28;20331;-83
2024/03/31 09:23:04;;;;;;;;;;;14.00;99.90;;;13.88;74.20;98597.06;5060704;28;19924;-81
2024/03/31 09:25:33;;;;;;;;;;;14.10;99.90;;;13.97;73.43;98591.91;5078204;28;19947;-81
2024/03/31 09:28:00;;;;;;;;;;;14.20;99.90;;;13.96;71.66;98592.16;5078066;28;19966;-82
2024/03/31 09:30:31;;;;;;;;;;;14.20;99.90;;;13.97;71.16;98593.78;5078265;28;19931;-82
2024/03/31 09:32:58;;;;;;;;;;;14.20;99.90;;;13.97;71.66;98585.75;5060226;28;19939;-82
2024/03/31 09:35:25;;;;;;;;;;;14.20;99.90;;;14.02;71.74;98591.88;5078341;28;19925;-82
2024/03/31 09:37:51;;;;;;;;;;;14.20;99.90;;;14.09;71.48;98591.53;5076598;28;19928;-82
2024/03/31 09:40:19;;;;;;;;;;;14.30;99.90;;;14.13;71.92;98587.22;5077889;28;19924;-82
2024/03/31 09:42:47;;;;;;;;;;;14.30;99.90;;;14.15;71.92;98593.09;5042392;28;19931;-82
2024/03/31 09:45:14;;;;;;;;;;;14.40;99.90;;;14.16;70.27;98592.84;5077282;28;19924;-82
2024/03/31 09:47:44;;;;;;;;;;;14.40;99.90;;;14.19;70.55;98583.41;5060204;28;19924;-82
2024/03/31 09:50:16;;;;;;;;;;;14.40;99.90;;;14.20;69.53;98579.66;5044314;28;19928;-82
2024/03/31 09:52:43;;;;;;;;;;;14.40;99.90;;;14.25;70.06;98578.78;5078968;28;19924;-82
2024/03/31 09:55:12;;;;;;;;;;;14.50;99.90;;;14.33;69.86;98580.88;5078491;28;19924;-82
2024/03/31 09:57:42;;;;;;;;;;;14.50;99.90;;;14.38;69.09;98589.66;5060740;28;19948;-82
2024/03/31 10:00:14;;;;;;;;;;;14.60;99.90;;;14.34;68.35;98583.28;5060440;28;19941;-82
2024/03/31 10:02:46;;;;;;;;;;;14.60;99.90;;;14.36;68.12;98589.16;5060869;28;20315;-82
2024/03/31 10:05:16;;;;;;;;;;;14.60;99.90;;;14.33;66.72;98576.31;5077689;28;20011;-82
2024/03/31 10:07:42;;;;;;;;;;;14.50;99.90;;;14.40;67.30;98581.38;5077991;28;19971;-82
2024/03/31 10:10:10;;;;;;;;;;;14.70;99.90;;;14.50;67.25;98575.13;5078080;28;20280;-82
2024/03/31 10:12:37;;;;;;;;;;;14.70;99.90;;;14.55;66.81;98570.50;5077282;28;20399;-82
2024/03/31 10:15:07;;;;;;;;;;;14.80;99.90;;;14.65;68.09;98573.09;5077200;28;20344;-82
2024/03/31 10:17:36;;;;;;;;;;;14.90;99.90;;;14.72;66.46;98582.69;5077326;28;20303;-82
2024/03/31 10:20:04;;;;;;;;;;;15.00;99.90;;;14.77;66.75;98575.38;5076709;28;19925;-82
2024/03/31 10:22:30;;;;;;;;;;;15.00;99.90;;;14.79;64.55;98573.22;5077231;28;19925;-82
2024/03/31 10:24:58;;;;;;;;;;;15.00;99.90;;;14.76;65.04;98581.81;5076923;28;20397;-82
2024/03/31 10:27:25;;;;;;;;;;;15.00;99.90;;;14.73;63.76;98579.69;5076492;28;20303;-82
2024/03/31 10:29:52;;;;;;;;;;;15.00;99.90;;;14.78;63.52;98574.28;5058904;28;19931;-82
2024/03/31 10:32:18;;;;;;;;;;;15.00;99.90;;;14.87;63.46;98580.63;5078066;28;19977;-82
2024/03/31 10:34:47;;;;;;;;;;;15.10;99.90;;;14.90;63.82;98579.25;5076336;28;19932;-82
2024/03/31 10:37:14;;;;;;;;;;;15.20;99.90;;;14.91;63.13;98580.84;5076435;28;19925;-82
2024/03/31 10:39:43;;;;;;;;;;;15.20;99.90;;;14.86;62.33;98578.22;5076738;28;19931;-82
2024/03/31 10:42:10;;;;;;;;;;;15.10;99.90;;;14.87;62.78;98574.47;5075438;28;19929;-82
2024/03/31 10:44:39;;;;;;;;;;;15.10;99.90;;;14.85;62.29;98569.38;5076155;28;19925;-82
2024/03/31 10:47:06;;;;;;;;;;;15.10;99.90;;;14.87;62.56;98561.84;5077274;28;19977;-82
2024/03/31 10:49:37;;;;;;;;;;;15.10;99.90;;;14.90;62.30;98566.63;5075690;28;19974;-81
2024/03/31 10:52:05;;;;;;;;;;;15.10;99.90;;;14.94;61.79;98561.50;5075240;28;19931;-81
2024/03/31 10:54:34;;;;;;;;;;;15.20;99.90;;;15.00;61.58;98560.34;5076865;28;19924;-81
2024/03/31 10:57:02;;;;;;;;;;;15.20;99.90;;;15.13;61.52;98561.56;5077075;28;19931;-82
2024/03/31 10:59:31;;;;;;;;;;;15.40;99.90;;;15.17;60.52;98557.19;5059373;28;19947;-82
2024/03/31 11:02:09;;;;;;;;;;;15.40;99.90;;;15.18;60.39;98554.22;5075218;28;19925;-82
2024/03/31 11:04:37;;;;;;;;;;;15.40;99.90;;;15.18;59.63;98553.44;5075449;28;19948;-81
2024/03/31 11:07:05;;;;;;;;;;;15.40;99.90;;;15.14;59.61;98560.47;5075341;28;19983;-82
2024/03/31 11:09:32;;;;;;;;;;;15.40;99.90;;;15.09;59.07;98547.09;5058228;28;19928;-82
2024/03/31 11:11:58;;;;;;;;;;;15.30;99.90;;;15.09;59.23;98541.72;5075162;28;19992;-82
2024/03/31 11:14:26;;;;;;;;;;;15.30;99.90;;;15.16;58.79;98539.47;5075055;28;19924;-82
2024/03/31 11:16:54;;;;;;;;;;;15.40;99.90;;;15.28;59.62;98547.13;5057753;28;20035;-82
2024/03/31 11:19:22;;;;;;;;;;;15.50;99.90;;;15.36;58.04;98539.19;5076468;28;19954;-82
2024/03/31 11:21:54;;;;;;;;;;;15.60;99.90;;;15.41;57.01;98544.50;5074508;28;19994;-82
2024/03/31 11:24:23;;;;;;;;;;;15.70;99.90;;;15.34;55.61;98527.16;5074661;28;19924;-82
2024/03/31 11:26:50;;;;;;;;;;;15.60;99.90;;;15.33;56.82;98529.03;5075120;28;19925;-82